CheckWX is a tool to help pilots better visualize weather data.  It is not intended as a substitute for an official pre-flight weather briefing.

07:56:53 UTC

KIXD METAR
New Century Aircenter Airport
Olathe, Kansas, USA
Current

1 hour ago

KIXD 290653Z AUTO 31009KT 10SM CLR 17/13 A3008 RMK AO2 SLP180 T01670133
Observed
May-29 @ 06:53 UTC
Wind
  • 310° at 9 KTS
Visibility
Flight Rules
VFR
Cloud Levels
  • Clear skies
Temperature
17°C / 63°F
Dewpoint
13°C / 55°F
Humidity
77%
Altimeter
30.08" Hg
Pressure
1018.62 hPa
Previous

2 hours ago

KIXD 290553Z AUTO 30005KT 10SM CLR 16/14 A3007 RMK AO2 SLP178 T01560139 10211 20156 402110156 53011
Observed
May-29 @ 05:53 UTC
Wind
  • 300° at 5 KTS
Visibility
Flight Rules
VFR
Cloud Levels
  • Clear skies
Dewpoint
14°C / 57°F
Humidity
88%
Altimeter
30.07" Hg
Pressure
1018.32 hPa
Previous

3 hours ago

KIXD 290453Z AUTO 28003KT 10SM CLR 16/14 A3006 RMK AO2 SLP173 T01610144
Observed
May-29 @ 04:53 UTC
Wind
  • 280° at 3 KTS
Visibility
Flight Rules
VFR
Cloud Levels
  • Clear skies
Temperature
16°C / 61°F
Dewpoint
14°C / 57°F
Humidity
88%
Altimeter
30.06" Hg
Pressure
1017.92 hPa